Portada
METAR-TAF:

METAR-TAF

Aeroports :

Aeroport Internacional Maiquetía Simón Bolívar

Caracas, Veneçuela

latitud: 10-36N, longitud: 066-59W, altitud: 43 m

Observació

L'informe es va fer fa 1 hora i 16 minuts, a les 16:03 UTC
Vent 5 kt del Nord/Nord-Est
Temperatura 29°C
Humitat 70%
Pressió 1014 hPa

METAR: SVMI 191603Z AUTO 03005KT NCD 29/23 Q1014

Hora: 13:19 (17:19 UTC)

Pronòstic

L'informe es va fer fa 5 hores i 19 minuts, a les 12:00 UTC
Pronòstic vàlid del 19 a les 12 UTC al 20 a les 12 UTC
Vent 5 kt del Nord
Visibilitat 10 km o més
Núvols disperses a una alçada de 1600 ft
Evolucionant progressivament
l' 19 a les 12 UTC al 19 a les 16 UTC
Vent 6 kt del Est
Visibilitat 10 km o més
Núvols disperses a una alçada de 1600 ft

TAF: SVMI 191200Z 1912/2012 360005KT 9999 SCT016 TX32/1912Z TN23/1914Z BECMG 1912/1916 09006KT 9999 SCT016

Observacions i pronòstics meteorològics de més de 4000 aeroports (METAR i TAF).

Les estacions disponibles són els punts grocs i vermells al mapa.

Posi el ratolí al punt desitjat per veure el nom de l'estació.

Feu clic per veure les observacions i els pronòstics meteorològics.

Per canviar el mapa: feu clic els botons verds amb una creu de color negre per apropar; al botó verd amb un guió per allunyar la imatge; o en les fletxes verdes per a mapes adjacents.


METAR-TAF: